createdAt,value
2023-03-21T00:04:24.733Z,8.04
2023-03-21T00:09:27.065Z,8.01
2023-03-21T00:14:31.020Z,7.94
2023-03-21T00:19:32.719Z,7.97
2023-03-21T00:24:35.302Z,7.99
2023-03-21T00:29:36.793Z,7.94
2023-03-21T00:34:43.322Z,7.92
2023-03-21T00:39:56.137Z,7.99
2023-03-21T00:44:57.790Z,7.99
2023-03-21T00:49:59.304Z,8.05
2023-03-21T00:55:01.507Z,8.00
2023-03-21T01:00:04.332Z,8.00
2023-03-21T01:05:06.368Z,7.98
2023-03-21T01:10:08.188Z,7.99
2023-03-21T01:15:09.931Z,8.03
2023-03-21T01:20:12.168Z,8.05
2023-03-21T01:25:22.228Z,8.05
2023-03-21T01:30:25.003Z,8.05
2023-03-21T01:35:30.062Z,8.04
2023-03-21T01:40:33.623Z,8.02
2023-03-21T01:46:12.371Z,7.98
2023-03-21T01:51:13.888Z,8.02
2023-03-21T01:56:23.618Z,8.03
2023-03-21T02:01:25.156Z,8.02
2023-03-21T02:06:44.216Z,8.07
2023-03-21T02:11:47.192Z,8.00
2023-03-21T02:16:56.272Z,8.03
2023-03-21T02:22:16.403Z,8.09
2023-03-21T02:27:23.827Z,8.09
2023-03-21T02:32:58.642Z,8.07
2023-03-21T02:38:15.430Z,8.10
2023-03-21T02:43:31.435Z,8.14
2023-03-21T02:48:50.296Z,8.22
2023-03-21T02:54:23.789Z,8.23
2023-03-21T02:59:23.542Z,8.20
2023-03-21T03:04:27.909Z,8.20
2023-03-21T03:09:49.497Z,8.18
2023-03-21T03:15:13.673Z,8.22
2023-03-21T03:20:21.092Z,8.20
2023-03-21T03:25:41.634Z,8.16
2023-03-21T03:30:57.497Z,8.17
2023-03-21T03:36:21.593Z,8.16
2023-03-21T03:41:50.286Z,8.17
2023-03-21T03:46:59.693Z,8.16
2023-03-21T03:52:06.908Z,8.16
2023-03-21T03:57:09.766Z,8.16
2023-03-21T04:02:11.559Z,8.18
2023-03-21T04:07:13.615Z,8.13
2023-03-21T04:12:15.342Z,8.15
2023-03-21T04:17:17.520Z,8.15
2023-03-21T04:22:19.064Z,8.16
2023-03-21T04:27:20.861Z,8.13
2023-03-21T04:32:24.698Z,8.14
2023-03-21T04:37:27.868Z,8.12
2023-03-21T04:42:29.357Z,8.14
2023-03-21T04:47:31.235Z,8.15
2023-03-21T04:52:32.769Z,8.12
2023-03-21T04:57:34.296Z,8.10
2023-03-21T05:02:35.844Z,8.10
2023-03-21T05:07:38.960Z,8.12
2023-03-21T05:12:40.587Z,8.12
2023-03-21T05:17:42.674Z,8.12
2023-03-21T05:22:46.269Z,8.14
2023-03-21T05:27:53.973Z,8.06
2023-03-21T05:32:55.531Z,8.07
2023-03-21T05:37:57.068Z,8.09
2023-03-21T05:42:58.580Z,8.05
2023-03-21T05:48:00.266Z,8.05
2023-03-21T05:53:01.859Z,8.10
2023-03-21T05:58:03.713Z,8.11
2023-03-21T06:03:05.293Z,8.06
2023-03-21T06:08:06.910Z,8.04
2023-03-21T06:13:08.715Z,8.04
2023-03-21T06:18:10.482Z,8.07
2023-03-21T06:23:12.107Z,8.07
2023-03-21T06:28:13.647Z,8.06
2023-03-21T06:33:15.399Z,8.13
2023-03-21T06:38:16.909Z,8.15
2023-03-21T06:43:18.391Z,8.08
2023-03-21T06:48:19.994Z,8.05
2023-03-21T06:53:25.009Z,8.02
2023-03-21T06:58:27.105Z,8.01
2023-03-21T07:03:29.176Z,8.09
2023-03-21T07:08:30.693Z,8.11
2023-03-21T07:13:32.602Z,8.12
2023-03-21T07:18:34.158Z,8.10
2023-03-21T07:23:36.015Z,8.06
2023-03-21T07:28:37.538Z,8.09
2023-03-21T07:33:39.064Z,8.02
2023-03-21T07:38:41.240Z,8.05
2023-03-21T07:43:42.805Z,8.02
2023-03-21T07:48:44.360Z,8.07
2023-03-21T07:53:48.578Z,8.08
2023-03-21T07:58:50.223Z,8.09
2023-03-21T08:03:53.801Z,8.11
2023-03-21T08:08:55.441Z,8.17
2023-03-21T08:13:58.153Z,8.12
2023-03-21T08:18:59.692Z,7.98
2023-03-21T08:24:01.387Z,7.94
2023-03-21T08:29:02.935Z,7.90
2023-03-21T08:34:04.470Z,7.86
2023-03-21T08:39:06.470Z,7.91
2023-03-21T08:44:08.040Z,7.97
2023-03-21T08:49:09.580Z,7.99
2023-03-21T08:54:21.797Z,8.07
2023-03-21T08:59:23.786Z,8.14
2023-03-21T09:04:28.001Z,8.15
2023-03-21T09:09:29.612Z,8.17
2023-03-21T09:14:31.195Z,8.28
2023-03-21T09:19:33.137Z,8.38
2023-03-21T09:24:34.637Z,8.54
2023-03-21T09:29:36.158Z,8.63
2023-03-21T09:34:41.009Z,8.66
2023-03-21T09:39:44.828Z,8.67
2023-03-21T09:45:10.027Z,8.80
2023-03-21T09:50:20.003Z,8.93
2023-03-21T09:55:35.095Z,9.09
2023-03-21T10:00:40.524Z,9.26
2023-03-21T10:05:45.903Z,9.38
2023-03-21T10:10:50.501Z,9.45
2023-03-21T10:15:57.578Z,9.54
2023-03-21T10:21:06.257Z,9.61
2023-03-21T10:26:08.178Z,9.65
2023-03-21T10:31:15.034Z,9.65
2023-03-21T10:36:22.751Z,9.64
2023-03-21T10:41:24.568Z,9.75
2023-03-21T10:46:27.362Z,9.87
2023-03-21T10:51:33.570Z,9.93
2023-03-21T10:56:38.445Z,9.96
2023-03-21T11:01:42.986Z,10.09
2023-03-21T11:06:54.877Z,10.28
2023-03-21T11:12:12.170Z,10.27
2023-03-21T11:17:16.702Z,10.21
2023-03-21T11:22:23.302Z,10.33
2023-03-21T11:27:29.344Z,10.40
2023-03-21T11:32:38.261Z,10.45
2023-03-21T11:37:47.036Z,10.65
2023-03-21T11:42:56.757Z,10.61
2023-03-21T11:48:00.309Z,10.50
2023-03-21T11:53:26.575Z,10.38
2023-03-21T11:58:49.672Z,10.30
2023-03-21T12:04:18.858Z,10.20
2023-03-21T12:09:20.336Z,10.23
2023-03-21T12:14:36.143Z,10.49
2023-03-21T12:19:44.320Z,10.72
2023-03-21T12:24:45.758Z,11.00
2023-03-21T12:30:00.929Z,11.17
2023-03-21T12:35:24.853Z,11.16
2023-03-21T12:40:53.538Z,11.07
2023-03-21T12:46:03.293Z,11.15
2023-03-21T12:51:11.386Z,11.34
2023-03-21T12:56:21.139Z,11.27
2023-03-21T13:01:24.391Z,11.25
2023-03-21T13:06:28.161Z,11.24
2023-03-21T13:11:31.204Z,11.54
2023-03-21T13:16:36.592Z,11.87
2023-03-21T13:22:00.173Z,11.71
2023-03-21T13:27:08.521Z,11.62
2023-03-21T13:32:33.047Z,11.40
2023-03-21T13:37:38.909Z,11.33
2023-03-21T13:42:50.158Z,11.33
2023-03-21T13:47:55.165Z,11.39
2023-03-21T13:53:21.492Z,11.28
2023-03-21T13:58:24.207Z,11.13
2023-03-21T14:03:30.764Z,10.91
2023-03-21T14:08:37.759Z,10.84
2023-03-21T14:13:50.965Z,10.86
2023-03-21T14:18:56.520Z,10.80
2023-03-21T14:24:06.389Z,10.75
2023-03-21T14:29:24.709Z,10.65
2023-03-21T14:34:29.499Z,10.64
2023-03-21T14:39:32.918Z,10.66
2023-03-21T14:44:53.928Z,10.68
2023-03-21T14:49:58.040Z,10.43
2023-03-21T14:55:01.946Z,10.34
2023-03-21T15:00:12.744Z,10.18
2023-03-21T15:05:39.594Z,10.22
2023-03-21T15:10:41.678Z,10.28
2023-03-21T15:15:44.078Z,10.32
2023-03-21T15:20:47.854Z,10.07
2023-03-21T15:25:50.846Z,9.94
2023-03-21T15:30:53.313Z,9.98
2023-03-21T15:35:58.380Z,9.86
2023-03-21T15:41:27.734Z,9.64
2023-03-21T15:46:49.642Z,9.43
2023-03-21T15:51:57.244Z,9.33
2023-03-21T15:57:04.822Z,9.32
2023-03-21T16:02:17.014Z,9.36
2023-03-21T16:07:18.701Z,9.33
2023-03-21T16:12:20.335Z,9.23
2023-03-21T16:17:37.316Z,9.27
2023-03-21T16:22:38.796Z,9.33
2023-03-21T16:27:40.347Z,9.46
2023-03-21T16:32:42.255Z,9.51
2023-03-21T16:37:44.216Z,9.70
2023-03-21T16:42:45.812Z,9.74
2023-03-21T16:47:47.904Z,9.84
2023-03-21T16:52:49.510Z,9.76
2023-03-21T16:57:52.505Z,9.71
2023-03-21T17:02:56.149Z,9.55
2023-03-21T17:07:57.806Z,9.47
2023-03-21T17:12:59.374Z,9.50
2023-03-21T17:18:01.145Z,9.62
2023-03-21T17:23:02.762Z,9.67
2023-03-21T17:28:04.348Z,9.73
2023-03-21T17:33:05.951Z,9.48
2023-03-21T17:38:15.576Z,9.42
2023-03-21T17:43:19.542Z,9.69
2023-03-21T17:48:21.871Z,9.91
2023-03-21T17:53:23.519Z,10.01
2023-03-21T17:58:26.230Z,9.96
2023-03-21T18:03:27.794Z,9.74
2023-03-21T18:08:29.738Z,9.64
2023-03-21T18:13:31.341Z,9.61
2023-03-21T18:18:33.999Z,9.55
2023-03-21T18:23:35.973Z,9.46
2023-03-21T18:28:40.026Z,9.36
2023-03-21T18:33:44.969Z,9.24
2023-03-21T18:38:47.185Z,9.07
2023-03-21T18:44:15.606Z,9.05
2023-03-21T18:49:52.108Z,9.08
2023-03-21T18:54:38.423Z,9.08
2023-03-21T18:59:39.983Z,8.95
2023-03-21T19:04:41.630Z,8.91
2023-03-21T19:10:05.193Z,8.85
2023-03-21T19:15:06.020Z,8.93
2023-03-21T19:20:08.235Z,9.02
2023-03-21T19:25:11.080Z,9.06
2023-03-21T19:30:15.708Z,9.04
2023-03-21T19:35:17.554Z,8.99
2023-03-21T19:40:19.911Z,8.91
2023-03-21T19:45:21.523Z,8.85
2023-03-21T19:50:49.363Z,8.90
2023-03-21T19:55:51.928Z,8.90
2023-03-21T20:00:53.851Z,8.96
2023-03-21T20:06:07.410Z,8.91
2023-03-21T20:11:08.995Z,8.92
2023-03-21T20:16:11.189Z,8.88
2023-03-21T20:21:17.694Z,8.87
2023-03-21T20:26:20.268Z,8.85
2023-03-21T20:31:22.917Z,8.83
2023-03-21T20:36:38.662Z,8.80
2023-03-21T20:41:41.435Z,8.67
2023-03-21T20:46:44.055Z,8.63
2023-03-21T20:52:45.801Z,8.67
2023-03-21T20:57:07.155Z,8.66
2023-03-21T21:02:10.220Z,8.64
2023-03-21T21:07:17.134Z,8.59
2023-03-21T21:12:19.379Z,8.58
2023-03-21T21:17:37.174Z,8.60
2023-03-21T21:22:58.084Z,8.53
2023-03-21T21:28:03.663Z,8.57
2023-03-21T21:33:05.493Z,8.55
2023-03-21T21:38:07.061Z,8.40
2023-03-21T21:43:08.737Z,8.41
2023-03-21T21:48:11.553Z,8.40
2023-03-21T21:53:13.950Z,8.39
2023-03-21T21:58:21.992Z,8.36
2023-03-21T22:03:23.603Z,8.39
2023-03-21T22:08:25.406Z,8.43
2023-03-21T22:13:27.712Z,8.44
2023-03-21T22:18:29.224Z,8.43
2023-03-21T22:23:30.882Z,8.37
2023-03-21T22:28:34.376Z,8.31
2023-03-21T22:33:35.974Z,8.41
2023-03-21T22:38:38.249Z,8.39
2023-03-21T22:43:39.825Z,8.32
2023-03-21T22:48:41.459Z,8.30
2023-03-21T22:53:42.945Z,8.26
2023-03-21T22:58:44.492Z,8.23
2023-03-21T23:03:46.263Z,8.14
2023-03-21T23:08:47.804Z,8.14
2023-03-21T23:13:58.743Z,8.16
2023-03-21T23:19:08.324Z,8.16
2023-03-21T23:24:10.669Z,8.22
2023-03-21T23:29:12.232Z,8.27
2023-03-21T23:34:14.084Z,8.20
2023-03-21T23:39:18.628Z,8.26
2023-03-21T23:44:20.212Z,8.29
2023-03-21T23:49:21.697Z,8.35
2023-03-21T23:54:23.195Z,8.36
2023-03-21T23:59:24.757Z,8.32
